createdAt,value
2022-11-05T00:00:35.354Z,4.32
2022-11-05T00:05:52.511Z,4.32
2022-11-05T00:10:57.185Z,4.88
2022-11-05T00:16:17.740Z,7.07
2022-11-05T00:21:53.129Z,2.20
2022-11-05T00:26:57.701Z,2.05
2022-11-05T00:32:01.527Z,3.85
2022-11-05T00:37:04.798Z,1.80
2022-11-05T00:42:26.658Z,3.80
2022-11-05T00:47:48.003Z,4.55
2022-11-05T00:52:59.609Z,3.92
2022-11-05T00:58:06.176Z,2.67
2022-11-05T01:03:12.092Z,2.28
2022-11-05T01:08:17.791Z,4.13
2022-11-05T01:13:23.973Z,1.95
2022-11-05T01:18:27.139Z,3.42
2022-11-05T01:23:30.409Z,1.98
2022-11-05T01:28:35.285Z,7.38
2022-11-05T01:33:38.642Z,2.63
2022-11-05T01:38:42.012Z,2.05
2022-11-05T01:43:52.054Z,2.47
2022-11-05T01:49:02.902Z,3.63
2022-11-05T01:54:11.538Z,3.67
2022-11-05T01:59:19.792Z,3.00
2022-11-05T02:04:28.977Z,2.05
2022-11-05T02:09:36.905Z,2.60
2022-11-05T02:14:41.691Z,3.35
2022-11-05T02:20:26.461Z,4.05
2022-11-05T02:25:53.168Z,3.10
2022-11-05T02:31:02.880Z,4.47
2022-11-05T02:36:39.513Z,4.38
2022-11-05T02:41:50.420Z,4.50
2022-11-05T02:46:59.459Z,2.40
2022-11-05T02:52:07.770Z,3.40
2022-11-05T02:57:11.136Z,4.75
2022-11-05T03:02:16.067Z,2.97
2022-11-05T03:07:33.224Z,3.13
2022-11-05T03:12:46.354Z,2.35
2022-11-05T03:18:02.957Z,3.45
2022-11-05T03:23:13.625Z,2.67
2022-11-05T03:28:19.528Z,3.35
2022-11-05T03:33:29.117Z,2.00
2022-11-05T03:38:36.048Z,3.10
2022-11-05T03:43:44.295Z,2.75
2022-11-05T03:48:53.066Z,4.35
2022-11-05T03:53:59.233Z,4.78
2022-11-05T03:59:03.974Z,3.25
2022-11-05T04:04:09.532Z,6.05
2022-11-05T04:09:30.530Z,5.75
2022-11-05T04:14:33.976Z,4.40
2022-11-05T04:19:57.519Z,2.90
2022-11-05T04:25:00.735Z,2.95
2022-11-05T04:30:19.758Z,3.22
2022-11-05T04:35:24.516Z,7.50
2022-11-05T04:40:27.811Z,4.05
2022-11-05T04:45:34.404Z,5.47
2022-11-05T04:50:49.459Z,4.57
2022-11-05T04:55:52.712Z,4.25
2022-11-05T05:00:56.669Z,2.95
2022-11-05T05:06:04.017Z,4.18
2022-11-05T05:11:09.585Z,2.63
2022-11-05T05:16:20.432Z,3.35
2022-11-05T05:21:41.272Z,3.10
2022-11-05T05:26:46.354Z,2.03
2022-11-05T05:31:55.927Z,2.53
2022-11-05T05:37:23.241Z,11.27
2022-11-05T05:42:28.362Z,3.95
2022-11-05T05:47:33.367Z,2.78
2022-11-05T05:52:41.427Z,3.42
2022-11-05T05:57:44.703Z,3.13
2022-11-05T06:02:48.145Z,3.35
2022-11-05T06:07:58.254Z,4.03
2022-11-05T06:13:01.615Z,4.78
2022-11-05T06:18:04.959Z,3.28
2022-11-05T06:23:09.953Z,4.28
2022-11-05T06:28:13.356Z,2.30
2022-11-05T06:33:16.888Z,2.70
2022-11-05T06:38:21.563Z,1.60
2022-11-05T06:43:24.850Z,2.00
2022-11-05T06:48:28.761Z,1.02
2022-11-05T06:53:33.435Z,0.50
2022-11-05T06:58:37.383Z,0.55
2022-11-05T07:03:40.891Z,0.35
2022-11-05T07:08:45.576Z,0.82
2022-11-05T07:13:48.979Z,0.40
2022-11-05T07:18:53.072Z,0.75
2022-11-05T07:23:57.740Z,0.50
2022-11-05T07:29:00.992Z,0.40
2022-11-05T07:34:04.948Z,1.10
2022-11-05T07:39:09.986Z,0.57
2022-11-05T07:44:14.607Z,0.93
2022-11-05T07:49:18.071Z,1.45
2022-11-05T07:54:26.520Z,0.70
2022-11-05T07:59:29.888Z,1.80
2022-11-05T08:04:33.287Z,0.80
2022-11-05T08:09:37.893Z,1.20
2022-11-05T08:14:41.145Z,1.20
2022-11-05T08:19:44.613Z,1.25
2022-11-05T08:24:49.522Z,2.80
2022-11-05T08:29:52.836Z,1.17
2022-11-05T08:34:56.047Z,2.38
2022-11-05T08:40:01.129Z,1.65
2022-11-05T08:45:04.539Z,1.98
2022-11-05T08:50:08.566Z,1.35
2022-11-05T08:55:13.837Z,3.63
2022-11-05T09:00:17.615Z,2.28
2022-11-05T09:05:22.686Z,2.25
2022-11-05T09:10:28.441Z,2.20
2022-11-05T09:15:35.592Z,5.13
2022-11-05T09:20:40.154Z,2.92
2022-11-05T09:25:45.109Z,9.05
2022-11-05T09:30:49.737Z,4.30
2022-11-05T09:35:54.242Z,2.85
2022-11-05T09:41:02.617Z,2.92
2022-11-05T09:46:14.622Z,3.55
2022-11-05T09:51:23.438Z,1.77
2022-11-05T09:56:32.234Z,1.38
2022-11-05T10:01:38.055Z,3.28
2022-11-05T10:06:48.074Z,2.60
2022-11-05T10:11:57.019Z,2.75
2022-11-05T10:17:05.503Z,3.08
2022-11-05T10:22:13.342Z,1.90
2022-11-05T10:27:21.519Z,3.15
2022-11-05T10:32:30.744Z,1.70
2022-11-05T10:37:39.587Z,1.77
2022-11-05T10:42:57.986Z,2.30
2022-11-05T10:48:16.641Z,1.13
2022-11-05T10:53:24.315Z,2.25
2022-11-05T10:58:31.067Z,1.60
2022-11-05T11:03:42.795Z,1.65
2022-11-05T11:08:48.244Z,2.17
2022-11-05T11:14:00.122Z,1.23
2022-11-05T11:19:04.440Z,1.55
2022-11-05T11:24:23.281Z,1.65
2022-11-05T11:29:29.755Z,2.35
2022-11-05T11:34:35.800Z,3.78
2022-11-05T11:39:40.269Z,2.65
2022-11-05T11:44:50.478Z,2.17
2022-11-05T11:49:56.621Z,3.75
2022-11-05T11:55:20.101Z,2.75
2022-11-05T12:00:27.020Z,2.55
2022-11-05T12:05:47.116Z,3.28
2022-11-05T12:10:58.981Z,3.00
2022-11-05T12:16:13.295Z,2.03
2022-11-05T12:21:34.819Z,2.10
2022-11-05T12:26:55.967Z,2.65
2022-11-05T12:32:23.632Z,2.10
2022-11-05T12:37:31.972Z,2.92
2022-11-05T12:42:53.090Z,2.13
2022-11-05T12:48:11.504Z,5.68
2022-11-05T12:53:28.641Z,3.17
2022-11-05T12:58:38.320Z,3.10
2022-11-05T13:03:47.326Z,4.90
2022-11-05T13:08:59.334Z,4.00
2022-11-05T13:14:09.203Z,3.50
2022-11-05T13:19:18.771Z,4.93
2022-11-05T13:24:25.736Z,4.85
2022-11-05T13:29:35.438Z,4.22
2022-11-05T13:34:40.218Z,4.90
2022-11-05T13:39:48.147Z,6.47
2022-11-05T13:45:28.389Z,6.80
2022-11-05T13:50:48.232Z,3.70
2022-11-05T14:01:55.254Z,6.05
2022-11-05T14:07:11.778Z,4.18
2022-11-05T14:12:23.874Z,6.28
2022-11-05T14:17:34.887Z,5.38
2022-11-05T14:22:42.742Z,5.32
2022-11-05T14:27:48.196Z,6.28
2022-11-05T14:32:53.307Z,5.82
2022-11-05T14:37:59.992Z,4.20
2022-11-05T14:43:05.555Z,7.00
2022-11-05T14:48:28.804Z,6.00
2022-11-05T14:53:36.913Z,5.68
2022-11-05T14:58:41.092Z,4.80
2022-11-05T15:04:07.129Z,4.28
2022-11-05T15:09:32.688Z,8.25
2022-11-05T15:14:42.360Z,6.05
2022-11-05T15:19:46.998Z,9.52
2022-11-05T15:24:53.160Z,5.13
2022-11-05T15:29:56.520Z,5.78
2022-11-05T15:35:00.376Z,6.85
2022-11-05T15:40:24.445Z,7.30
2022-11-05T15:45:27.704Z,7.30
2022-11-05T15:50:34.468Z,8.20
2022-11-05T15:55:51.351Z,7.70
2022-11-05T16:00:54.692Z,5.22
2022-11-05T16:05:58.668Z,5.65
2022-11-05T16:11:04.085Z,8.32
2022-11-05T16:16:24.284Z,11.02
2022-11-05T16:21:31.391Z,10.50
2022-11-05T16:27:01.904Z,13.85
2022-11-05T16:32:03.421Z,9.98
2022-11-05T16:37:09.025Z,7.78
2022-11-05T16:42:44.018Z,9.65
2022-11-05T16:47:47.710Z,13.07
2022-11-05T16:52:51.235Z,13.73
2022-11-05T16:57:56.940Z,8.35
2022-11-05T17:03:01.523Z,8.40
2022-11-05T17:08:05.117Z,8.27
2022-11-05T17:13:11.343Z,7.97
2022-11-05T17:18:18.523Z,11.10
2022-11-05T17:23:24.544Z,9.52
2022-11-05T17:28:30.617Z,13.98
2022-11-05T17:33:34.554Z,9.75
2022-11-05T17:38:38.191Z,9.07
2022-11-05T17:43:43.593Z,13.27
2022-11-05T17:48:47.566Z,11.95
2022-11-05T17:53:50.850Z,10.60
2022-11-05T17:58:55.875Z,11.82
2022-11-05T18:04:07.149Z,10.30
2022-11-05T18:09:12.418Z,9.27
2022-11-05T18:14:22.787Z,12.43
2022-11-05T18:19:27.971Z,12.02
2022-11-05T18:24:31.982Z,16.73
2022-11-05T18:29:36.753Z,15.45
2022-11-05T18:34:40.089Z,13.02
2022-11-05T18:39:43.450Z,14.82
2022-11-05T18:44:48.706Z,9.52
2022-11-05T18:55:20.521Z,16.92
2022-11-05T19:00:25.446Z,11.30
2022-11-05T19:05:29.945Z,9.93
2022-11-05T19:10:33.614Z,12.27
2022-11-05T19:15:38.211Z,10.97
2022-11-05T19:20:41.556Z,11.90
2022-11-05T19:25:44.768Z,14.27
2022-11-05T19:30:49.373Z,9.67
2022-11-05T19:35:52.701Z,13.83
2022-11-05T19:40:55.910Z,11.88
2022-11-05T19:46:00.490Z,15.50
2022-11-05T19:51:09.354Z,13.90
2022-11-05T19:56:14.424Z,13.90
2022-11-05T20:06:48.610Z,14.33
2022-11-05T20:11:53.879Z,16.33
2022-11-05T20:16:58.509Z,11.97
2022-11-05T20:22:01.919Z,13.60
2022-11-05T20:27:05.312Z,16.03
2022-11-05T20:32:12.398Z,25.97
2022-11-05T20:37:15.751Z,17.98
2022-11-05T20:42:19.020Z,17.00
2022-11-05T20:47:23.817Z,14.50
2022-11-05T20:52:27.479Z,16.80
2022-11-05T20:57:30.979Z,18.57
2022-11-05T21:02:36.107Z,14.30
2022-11-05T21:07:39.490Z,10.27
2022-11-05T21:12:42.967Z,9.53
2022-11-05T21:17:47.560Z,8.00
2022-11-05T21:22:50.865Z,11.63
2022-11-05T21:27:54.184Z,10.23
2022-11-05T21:32:58.887Z,11.77
2022-11-05T21:38:02.358Z,13.57
2022-11-05T21:43:05.591Z,8.80
2022-11-05T21:48:10.750Z,10.93
2022-11-05T21:53:32.904Z,15.20
2022-11-05T21:58:53.784Z,12.40
2022-11-05T22:04:02.833Z,15.33
2022-11-05T22:09:06.958Z,13.80
2022-11-05T22:14:10.164Z,11.33
2022-11-05T22:19:14.915Z,13.00
2022-11-05T22:24:18.287Z,16.20
2022-11-05T22:29:21.621Z,8.57
2022-11-05T22:34:26.918Z,13.47
2022-11-05T22:39:30.227Z,12.77
2022-11-05T22:44:33.597Z,13.27
2022-11-05T22:49:38.409Z,11.47
2022-11-05T22:54:41.667Z,12.30
2022-11-05T22:59:44.912Z,8.77
2022-11-05T23:04:50.059Z,9.60
2022-11-05T23:10:10.737Z,13.40
2022-11-05T23:15:34.555Z,11.37
2022-11-05T23:20:56.914Z,13.23
2022-11-05T23:26:21.771Z,12.00
2022-11-05T23:31:42.171Z,10.23
2022-11-05T23:37:03.975Z,14.13
2022-11-05T23:42:24.761Z,12.63
2022-11-05T23:47:45.562Z,14.33
2022-11-05T23:52:50.415Z,16.03
2022-11-05T23:57:53.741Z,12.40
